• Join FlightAware (Why Join?)
  • Login
  • US Flag 
08:12PM EDT


 

Airport Tracker/Info


-or-


 

Live Flight TrackerFlight Track Log ✈ SKW5516 ✈ 14-Jun-2013 ✈ KIAD - KSAT

Flight Track Log - Related Links

Times and Time Zones

All times are in EDT time to prevent confusion due to time zone crossing. See the SKW5516 flight status page for this flight to view local times or setup timezone preferences in your user account.

Time Position Orientation Groundspeed Altitude Reporting Facility
EDT Latitude Longitude Course Direction KTS MPH feet Rate Location/Type
08:48AM 38.9333 -77.5500 270° West 198 228 2,500  Level Potomac TRACON
08:49AM 38.9167 -77.6333 256° West 254 292 4,300 2,100 Climbing Potomac TRACON
08:50AM 38.8833 -77.7167 243° Southwest 293 337 6,500 2,520 Climbing Potomac TRACON
08:51AM 38.8500 -77.8000 243° Southwest 291 335 9,400 2,400 Climbing Potomac TRACON
08:52AM 38.8500 -77.8833 270° West 289 333 11,100 2,040 Climbing Potomac TRACON
08:53AM 38.8500 -78.0000 270° West 310 357 13,400 1,980 Climbing Potomac TRACON
08:54AM 38.8500 -78.2619 270° West  Level FlightAware Approximate
08:54AM 38.8506 -78.0600 271° West 319 367 14,400  Level Washington Center
08:55AM 38.8525 -78.1719 271° West 327 376 16,600 2,040 Climbing Washington Center
08:56AM 38.8539 -78.2894 271° West 327 376 18,600 1,860 Climbing Washington Center
08:57AM 38.8533 -78.4092 270° West 327 376 20,300 1,920 Climbing Washington Center
08:58AM 38.8503 -78.5344 268° West 337 388 22,400 1,680 Climbing Washington Center
08:59AM 38.8492 -78.6625 269° West 349 402 23,800 1,380 Climbing Washington Center
09:00AM 38.8481 -78.7903 269° West 356 410 25,200 1,320 Climbing Washington Center
09:01AM 38.8278 -78.9225 259° West 367 422 26,500 1,380 Climbing Washington Center
09:02AM 38.8072 -79.0522 259° West 372 428 28,000 1,260 Climbing Washington Center
09:03AM 38.7867 -79.1897 259° West 377 434 29,000 840 Climbing Washington Center
09:04AM 38.7678 -79.3328 260° West 396 456 29,800 660 Climbing Washington Center
09:05AM 38.7397 -79.4908 257° West 412 474 30,400 900 Climbing Washington Center
09:06AM 38.7161 -79.6361 258° West 419 482 31,700 1,140 Climbing Washington Center
09:07AM 38.6925 -79.7783 258° West 419 482 32,700 840 Climbing Washington Center
09:08AM 38.6444 -79.8981 243° Southwest 419 482 33,400 660 Climbing Washington Center
09:09AM 38.5853 -80.0325 241° Southwest 427 491 34,000 660 Climbing Washington Center
09:11AM 38.5250 -80.2806 253° West 431 496 35,200 720 Climbing Indianapolis Center
09:12AM 38.4936 -80.4206 254° West 426 490 36,000 360 Climbing Indianapolis Center
09:13AM 38.4586 -80.5775 254° West 424 488 36,000  Level Indianapolis Center
09:14AM 38.4244 -80.7203 253° West 420 483 36,000  Level Indianapolis Center
09:15AM 38.3900 -80.8636 253° West 422 486 36,000  Level Indianapolis Center
09:16AM 38.3553 -81.0100 253° West 427 491 36,000  Level Indianapolis Center
09:17AM 38.3211 -81.1558 253° West 427 491 36,000  Level Indianapolis Center
09:18AM 38.2861 -81.3036 253° West 430 495 36,000  Level Indianapolis Center
09:19AM 38.2511 -81.4489 253° West 428 493 36,000  Level Indianapolis Center
09:20AM 38.2178 -81.5892 253° West 415 478 36,000  Level Indianapolis Center
09:21AM 38.1781 -81.7558 253° West 408 470 36,000  Level Indianapolis Center
09:22AM 38.1436 -81.8972 253° West 415 478 36,000  Level Indianapolis Center
09:23AM 38.1086 -82.0369 252° West 415 478 36,000  Level Indianapolis Center
09:24AM 38.0744 -82.1767 253° West 419 482 36,000  Level Indianapolis Center
09:25AM 38.0400 -82.3175 253° West 418 481 36,000  Level Indianapolis Center
09:26AM 37.9994 -82.4814 253° West 417 480 36,000  Level Indianapolis Center
09:27AM 37.9647 -82.6203 252° West 414 476 36,000  Level Indianapolis Center
09:28AM 37.9300 -82.7606 253° West 417 480 36,000  Level Indianapolis Center
09:29AM 37.8933 -82.9014 252° West 421 484 36,000  Level Indianapolis Center
09:30AM 37.8578 -83.0458 253° West 428 493 36,000  Level Indianapolis Center
09:31AM 37.8156 -83.2131 252° West 429 494 36,000  Level Indianapolis Center
09:32AM 37.7775 -83.3581 252° West 434 499 36,000  Level Indianapolis Center
09:33AM 37.7394 -83.5008 251° West 432 497 36,000  Level Indianapolis Center
09:34AM 37.7019 -83.6447 252° West 431 496 36,000  Level Indianapolis Center
09:35AM 37.6650 -83.7872 252° West 430 495 36,000  Level Indianapolis Center
09:36AM 37.6200 -83.9525 251° West 427 491 36,000  Level Indianapolis Center
09:37AM 37.5831 -84.0956 252° West 427 491 36,000  Level Indianapolis Center
09:38AM 37.5453 -84.2383 252° West 430 495 36,000  Level Indianapolis Center
09:39AM 37.5067 -84.3789 251° West 427 491 36,000  Level Indianapolis Center
09:41AM 37.4694 -84.5206 252° West 427 491 36,000  Level Indianapolis Center
09:42AM 37.4231 -84.6861 251° West 429 494 36,000  Level Indianapolis Center
09:43AM 37.3847 -84.8281 251° West 430 495 36,000  Level Indianapolis Center
09:44AM 37.3456 -84.9700 251° West 430 495 36,000  Level Indianapolis Center
09:45AM 37.3061 -85.1117 251° West 429 494 36,000  Level Indianapolis Center
09:46AM 37.2669 -85.2544 251° West 432 497 36,000  Level Indianapolis Center
09:47AM 37.2203 -85.4203 251° West 433 498 36,000  Level Indianapolis Center
09:48AM 37.1808 -85.5619 251° West 434 499 36,000  Level Indianapolis Center
09:49AM 37.1400 -85.7067 251° West 438 504 36,000  Level Indianapolis Center
09:50AM 37.0983 -85.8517 250° West 438 504 36,000  Level Indianapolis Center
09:51AM 37.0581 -85.9956 251° West 436 502 36,000  Level Indianapolis Center
09:52AM 37.0164 -86.1411 250° West 439 505 36,000  Level Indianapolis Center
09:53AM 36.9736 -86.2864 250° West 441 507 36,000  Level Indianapolis Center
09:54AM 36.9219 -86.4567 249° West 444 511 36,000  Level Indianapolis Center
09:55AM 36.8517 -86.5928 237° Southwest 463 533 36,000  Level Indianapolis Center
09:56AM 36.7817 -86.7281 237° Southwest 461 531 36,000  Level Indianapolis Center
09:57AM 36.7097 -86.8706 238° Southwest 467 537 36,000  Level Memphis Center
09:58AM 36.6428 -87.0056 238° Southwest 467 537 36,000  Level Memphis Center
09:59AM 36.5733 -87.1375 237° Southwest 467 537 36,000  Level Memphis Center
10:00AM 36.5036 -87.2669 236° Southwest 467 537 36,000  Level Memphis Center
10:01AM 36.4339 -87.3983 237° Southwest 467 537 36,000  Level Memphis Center
10:02AM 36.3639 -87.5272 236° Southwest 467 537 36,000  Level Memphis Center
10:03AM 36.2919 -87.6636 237° Southwest 472 543 36,000 540 Level Memphis Center
10:04AM 36.2217 -87.7972 237° Southwest 479 551 37,100 960 Climbing Memphis Center
10:05AM 36.1514 -87.9281 236° Southwest 469 540 38,000 420 Climbing Memphis Center
10:06AM 36.0850 -88.0583 238° Southwest 463 533 38,000  Level Memphis Center
10:07AM 36.0225 -88.1653 234° Southwest 456 525 38,000  Level Memphis Center
10:08AM 35.9517 -88.2928 236° Southwest 449 517 38,000  Level Memphis Center
10:09AM 35.8808 -88.4228 236° Southwest 454 522 38,000  Level Memphis Center
10:10AM 35.8117 -88.5497 236° Southwest 454 522 38,000  Level Memphis Center
10:11AM 35.7406 -88.6767 235° Southwest 454 522 38,000  Level Memphis Center
10:12AM 35.6672 -88.8186 238° Southwest 454 522 38,000  Level Memphis Center
10:13AM 35.5958 -88.9450 235° Southwest 449 517 38,000  Level Memphis Center
10:14AM 35.5264 -89.0764 237° Southwest 455 524 38,000  Level Memphis Center
10:15AM 35.4525 -89.2050 235° Southwest 462 532 38,000  Level Memphis Center
10:16AM 35.3806 -89.3333 236° Southwest 462 532 38,000  Level Memphis Center
10:17AM 35.3086 -89.4664 236° Southwest 467 537 38,000  Level Memphis Center
10:18AM 35.2364 -89.5944 235° Southwest 467 537 38,000  Level Memphis Center
10:19AM 35.1642 -89.7272 236° Southwest 472 543 38,000  Level Memphis Center
10:20AM 35.0939 -89.8572 237° Southwest 472 543 38,000  Level Memphis Center
10:21AM 35.0192 -89.9894 235° Southwest 472 543 38,000  Level Memphis Center
10:22AM 34.9403 -90.1164 233° Southwest 472 543 38,000  Level Memphis Center
10:23AM 34.8614 -90.2406 232° Southwest 472 543 38,000  Level Memphis Center
10:24AM 34.7819 -90.3672 233° Southwest 472 543 38,000  Level Memphis Center
10:25AM 34.7047 -90.4911 233° Southwest 472 543 38,000  Level Memphis Center
10:26AM 34.6336 -90.6044 233° Southwest 472 543 38,000  Level Memphis Center
10:27AM 34.5542 -90.7278 232° Southwest 470 541 38,000  Level Memphis Center
10:28AM 34.4786 -90.8508 233° Southwest 470 541 38,000  Level Memphis Center
10:29AM 34.4008 -90.9739 233° Southwest 470 541 38,000  Level Memphis Center
10:30AM 34.3208 -91.0967 232° Southwest 470 541 38,000  Level Memphis Center
10:31AM 34.2450 -91.2189 233° Southwest 465 535 38,000  Level Memphis Center
10:32AM 34.1667 -91.3411 232° Southwest 465 535 38,000  Level Memphis Center
10:33AM 34.0842 -91.4758 234° Southwest 465 535 38,000  Level Memphis Center
10:34AM 34.0039 -91.5975 232° Southwest 459 528 38,000  Level Memphis Center
10:35AM 33.9275 -91.7167 232° Southwest 459 528 38,000  Level Memphis Center
10:37AM 33.8044 -91.9144 233° Southwest 439 505 38,000  Level Fort Worth Center
10:38AM 33.7264 -92.0344 232° Southwest 449 517 38,000  Level Fort Worth Center
10:39AM 33.6458 -92.1517 230° Southwest 454 522 38,000  Level Fort Worth Center
10:40AM 33.5714 -92.2681 233° Southwest 454 522 38,000  Level Fort Worth Center
10:41AM 33.4925 -92.3847 231° Southwest 454 522 38,000  Level Fort Worth Center
10:42AM 33.4178 -92.5011 232° Southwest 454 522 38,000  Level Fort Worth Center
10:43AM 33.3411 -92.6197 232° Southwest 454 522 38,000  Level Fort Worth Center
10:44AM 33.2619 -92.7333 230° Southwest 454 522 38,000  Level Fort Worth Center
10:45AM 33.1775 -92.8197 221° Southwest 448 516 38,000  Level Fort Worth Center
10:46AM 33.0806 -92.9114 218° Southwest 449 517 38,000  Level Fort Worth Center
10:47AM 32.9836 -93.0053 219° Southwest 454 522 38,000  Level Fort Worth Center
10:48AM 32.8867 -93.0967 218° Southwest 454 522 38,000  Level Fort Worth Center
10:49AM 32.7897 -93.1903 219° Southwest 454 522 38,000  Level Fort Worth Center
10:50AM 32.6925 -93.2814 218° Southwest 454 522 38,000  Level Fort Worth Center
10:51AM 32.5953 -93.3744 219° Southwest 454 522 38,000  Level Fort Worth Center
10:52AM 32.4981 -93.4675 219° Southwest 460 529 38,000  Level Fort Worth Center
10:53AM 32.3986 -93.5606 218° Southwest 453 521 38,000  Level Fort Worth Center
10:54AM 32.3033 -93.6531 219° Southwest 453 521 38,000  Level Fort Worth Center
10:55AM 32.2039 -93.7431 217° Southwest 458 527 38,000  Level Fort Worth Center
10:56AM 32.1106 -93.8375 221° Southwest 452 520 38,000  Level Houston Center
10:57AM 32.0144 -93.9281 219° Southwest 453 521 38,000  Level Houston Center
10:58AM 31.9092 -94.0314 220° Southwest 463 533 38,000  Level Fort Worth Center
10:59AM 31.7964 -94.1319 217° Southwest 456 525 38,000  Level Houston Center
11:00AM 31.6936 -94.2292 219° Southwest 460 529 38,000  Level Houston Center
11:01AM 31.5942 -94.3208 218° Southwest 455 524 38,000  Level Houston Center
11:02AM 31.4939 -94.4128 218° Southwest 457 526 38,000  Level Houston Center
11:03AM 31.3925 -94.5058 218° Southwest 459 528 38,000  Level Houston Center
11:04AM 31.2917 -94.5956 217° Southwest 453 521 38,000  Level Houston Center
11:05AM 31.1867 -94.6953 219° Southwest 475 547 38,000  Level Houston Center
11:06AM 31.0836 -94.8006 221° Southwest 461 531 38,000  Level Houston Center
11:07AM 30.9892 -94.9028 223° Southwest 461 531 38,000  Level Houston Center
11:08AM 30.8756 -95.0253 223° Southwest 460 529 38,000  Level Houston Center
11:09AM 30.7808 -95.1275 223° Southwest 463 533 38,000  Level Houston Center
11:10AM 30.6872 -95.2286 223° Southwest 459 528 38,000  Level Houston Center
11:11AM 30.5928 -95.3278 222° Southwest 458 527 38,000  Level Houston Center
11:12AM 30.4931 -95.4333 222° Southwest 457 526 38,000  Level Houston Center
11:13AM 30.3997 -95.5331 223° Southwest 459 528 38,000  Level Houston Center
11:14AM 30.3069 -95.6311 222° Southwest 456 525 38,000  Level Houston Center
11:15AM 30.2147 -95.7278 222° Southwest 452 520 38,000  Level Houston Center
11:16AM 30.1039 -95.8442 222° Southwest 451 519 38,000  Level Houston Center
11:17AM 30.0103 -95.9406 222° Southwest 454 522 38,000  Level Houston Center
11:18AM 29.9228 -96.0325 222° Southwest 450 518 38,000  Level Houston Center
11:20AM 29.8367 -96.1350 226° Southwest 448 516 38,000  Level Houston Center
11:21AM 29.7900 -96.2917 251° West 435 501 38,000 -420 Level Houston Center
11:22AM 29.7981 -96.4294 274° West 435 501 37,200 -1,140 Descending Houston Center
11:23AM 29.8083 -96.5644 275° West 428 493 35,700 -1,500 Descending Houston Center
11:24AM 29.8181 -96.6989 275° West 426 490 34,200 -1,500 Descending Houston Center
11:25AM 29.8283 -96.8392 275° West 441 507 32,700 -1,620 Descending Houston Center
11:26AM 29.8406 -97.0094 275° West 447 514 30,900 -2,160 Descending Houston Center
11:27AM 29.8500 -97.1525 274° West 450 518 28,300 -2,820 Descending Houston Center
11:28AM 29.8603 -97.2917 275° West 442 509 25,100 -3,060 Descending Houston Center
11:29AM 29.8703 -97.4289 275° West 434 499 22,000 -3,180 Descending Houston Center
11:30AM 29.8775 -97.5558 274° West 420 483 19,200 -3,180 Descending Houston Center
11:31AM 29.8878 -97.7039 275° West 399 459 15,900 -2,700 Descending Houston Center
11:32AM 29.8967 -97.8469 274° West 391 450 13,100 -1,560 Descending Houston Center
11:33AM 29.8572 -97.9572 248° West 377 434 12,600 -1,080 Descending Houston Center
11:34AM 29.8092 -98.0681 243° Southwest 330 380 10,800 -1,500 Descending Houston Center
11:35AM 29.7586 -98.1322 228° Southwest 285 328 9,600 -1,560 Descending Houston Center
11:36AM 29.7519 -98.2172 265° West 287 330 8,000 -1,740 Descending Houston Center
11:37AM 29.7478 -98.2875 266° West 285 328 6,700 -1,620 Descending Houston Center
11:37AM 29.7453 -98.3217 265° West 285 328 6,100 -720 Descending Houston Center
11:38AM 29.7422 -98.3844 267° West 284 327 6,000 -120 Descending Houston Center
11:38AM 29.7392 -98.4183 264° West 284 327 6,000 -1,020 Level Houston Center
11:39AM 29.7364 -98.4814 267° West 282 325 4,900 -1,680 Descending Houston Center
11:39AM 29.7339 -98.5069 264° West 281 323 4,300 -900 Descending Houston Center
11:40AM 29.7419 -98.5650 279° West 261 300 4,000 -300 Descending Houston Center
11:40AM 29.7467 -98.5939 281° West 255 293 4,000  Level Houston Center
11:41AM 29.7597 -98.6447 286° West 234 269 4,000  Level Houston Center
11:41AM 29.7658 -98.6667 288° West 241 277 4,000  Level Houston Center
11:42AM 29.7442 -98.7044 237° Southwest 201 231 4,000 -120 Level Houston Center
11:42AM 29.7275 -98.7094 195° South 188 216 3,900 -840 Descending Houston Center
11:43AM 29.7036 -98.6969 156° South 156 180 3,200 -780 Descending Houston Center
11:43AM 29.6919 -98.6828 133° Southeast 159 183 3,100  Descending Houston Center
11:44AM 29.6794 -98.6639 127° Southeast 125 144 3,200  Climbing Houston Center
11:44AM 29.6686 -98.6469 126° Southeast 133 153 3,100 -120 Descending Houston Center
11:45AM 29.6558 -98.6331 137° Southeast 129 148 3,100  Level Houston Center
11:45AM 29.6461 -98.6183 127° Southeast 131 151 3,100 60 Level Houston Center
11:46AM 29.6319 -98.6022 135° Southeast 131 151 3,200  Climbing Houston Center
11:46AM 29.6200 -98.5853 129° Southeast 130 150 3,100 -540 Descending Houston Center
11:47AM 29.6058 -98.5692 135° Southeast 127 146 2,700 -720 Descending Houston Center
11:47AM 29.5953 -98.5525 126° Southeast 127 146 2,400 -720 Descending Houston Center
11:48AM 29.5819 -98.5383 137° Southeast 126 145 2,000 -720 Descending Houston Center
11:48AM 29.5719 -98.5225 126° Southeast 127 146 1,700 -600 Descending Houston Center
11:49AM 29.5583 -98.5078 137° Southeast 130 150 1,400 -720 Descending Houston Center
11:50AM 29.5469 -98.4894 126° Southeast 128 147 1,000 -780 Descending Houston Center